createdAt,value
2022-08-25T00:01:37.781Z,31.15
2022-08-25T00:04:07.535Z,30.45
2022-08-25T00:06:34.730Z,31.08
2022-08-25T00:09:01.925Z,34.85
2022-08-25T00:11:30.658Z,33.05
2022-08-25T00:13:59.376Z,31.98
2022-08-25T00:16:26.617Z,31.60
2022-08-25T00:18:58.155Z,33.42
2022-08-25T00:21:25.451Z,36.33
2022-08-25T00:23:52.778Z,35.80
2022-08-25T00:26:19.927Z,35.90
2022-08-25T00:28:47.099Z,37.00
2022-08-25T00:31:20.158Z,36.08
2022-08-25T00:33:47.628Z,35.40
2022-08-25T00:36:15.677Z,36.42
2022-08-25T00:38:43.396Z,36.45
2022-08-25T00:41:11.372Z,37.35
2022-08-25T00:43:41.363Z,38.33
2022-08-25T00:46:11.516Z,38.20
2022-08-25T00:48:38.758Z,35.35
2022-08-25T00:51:05.977Z,36.35
2022-08-25T00:53:33.177Z,36.88
2022-08-25T00:56:00.329Z,37.35
2022-08-25T00:58:27.959Z,37.67
2022-08-25T01:00:56.738Z,37.67
2022-08-25T01:03:26.168Z,37.83
2022-08-25T01:06:00.882Z,37.80
2022-08-25T01:08:29.130Z,38.42
2022-08-25T01:10:57.189Z,37.58
2022-08-25T01:13:29.902Z,36.65
2022-08-25T01:15:57.178Z,38.60
2022-08-25T01:18:24.455Z,39.05
2022-08-25T01:20:52.789Z,37.38
2022-08-25T01:23:20.098Z,39.33
2022-08-25T01:26:07.700Z,40.50
2022-08-25T01:28:34.922Z,39.28
2022-08-25T01:31:02.124Z,38.40
2022-08-25T01:33:29.403Z,39.58
2022-08-25T01:35:56.579Z,37.47
2022-08-25T01:38:23.813Z,39.35
2022-08-25T01:40:51.066Z,38.55
2022-08-25T01:43:22.671Z,38.78
2022-08-25T01:45:50.279Z,38.47
2022-08-25T01:48:17.613Z,40.38
2022-08-25T01:50:44.755Z,37.95
2022-08-25T01:53:19.418Z,37.67
2022-08-25T01:55:54.200Z,39.20
2022-08-25T01:58:22.422Z,37.20
2022-08-25T02:00:49.835Z,38.40
2022-08-25T02:03:18.899Z,38.20
2022-08-25T02:05:48.064Z,37.92
2022-08-25T02:08:15.907Z,36.72
2022-08-25T02:10:43.091Z,36.22
2022-08-25T02:13:10.366Z,35.72
2022-08-25T02:15:41.015Z,36.53
2022-08-25T02:18:08.218Z,36.70
2022-08-25T02:20:35.482Z,35.70
2022-08-25T02:23:02.617Z,35.13
2022-08-25T02:25:29.780Z,36.78
2022-08-25T02:27:57.034Z,35.53
2022-08-25T02:30:24.284Z,35.35
2022-08-25T02:32:52.082Z,35.50
2022-08-25T02:35:19.281Z,33.40
2022-08-25T02:37:46.437Z,35.83
2022-08-25T02:40:13.712Z,34.38
2022-08-25T02:42:42.661Z,34.42
2022-08-25T02:45:10.196Z,33.70
2022-08-25T02:47:37.494Z,34.85
2022-08-25T02:50:05.595Z,33.65
2022-08-25T02:52:32.765Z,30.52
2022-08-25T02:54:59.902Z,27.23
2022-08-25T02:57:27.439Z,25.92
2022-08-25T02:59:54.816Z,25.20
2022-08-25T03:02:21.990Z,26.33
2022-08-25T03:04:49.218Z,27.42
2022-08-25T03:07:17.665Z,27.60
2022-08-25T03:09:45.266Z,26.52
2022-08-25T03:12:12.608Z,28.80
2022-08-25T03:14:40.041Z,28.15
2022-08-25T03:17:08.802Z,31.33
2022-08-25T03:19:36.226Z,29.60
2022-08-25T03:22:03.488Z,28.48
2022-08-25T03:24:30.650Z,28.85
2022-08-25T03:26:57.862Z,27.80
2022-08-25T03:29:29.931Z,28.00
2022-08-25T03:31:58.311Z,27.77
2022-08-25T03:34:25.752Z,28.15
2022-08-25T03:36:53.251Z,28.38
2022-08-25T03:39:20.818Z,26.08
2022-08-25T03:41:48.028Z,26.85
2022-08-25T03:44:15.233Z,26.73
2022-08-25T03:46:43.530Z,28.20
2022-08-25T03:49:11.746Z,27.63
2022-08-25T03:51:40.759Z,30.45
2022-08-25T03:54:07.969Z,30.33
2022-08-25T03:56:35.533Z,32.25
2022-08-25T03:59:03.557Z,32.08
2022-08-25T04:01:30.844Z,32.13
2022-08-25T04:03:58.022Z,32.20
2022-08-25T04:06:25.174Z,29.40
2022-08-25T04:08:52.814Z,30.80
2022-08-25T04:11:21.309Z,30.90
2022-08-25T04:13:48.869Z,29.52
2022-08-25T04:16:17.236Z,33.30
2022-08-25T04:18:44.431Z,35.20
2022-08-25T04:21:11.968Z,34.83
2022-08-25T04:23:40.697Z,33.30
2022-08-25T04:26:14.916Z,35.22
2022-08-25T04:28:42.139Z,33.42
2022-08-25T04:31:09.899Z,32.38
2022-08-25T04:33:38.157Z,33.83
2022-08-25T04:36:11.464Z,32.65
2022-08-25T04:38:39.614Z,33.92
2022-08-25T04:41:07.097Z,32.80
2022-08-25T04:43:34.623Z,33.03
2022-08-25T04:46:04.856Z,33.78
2022-08-25T04:48:32.778Z,31.48
2022-08-25T04:50:59.953Z,29.17
2022-08-25T04:53:27.121Z,31.45
2022-08-25T04:55:54.342Z,29.23
2022-08-25T04:58:21.483Z,29.60
2022-08-25T05:00:48.650Z,30.42
2022-08-25T05:03:15.854Z,30.35
2022-08-25T05:05:43.070Z,33.30
2022-08-25T05:08:10.378Z,32.60
2022-08-25T05:10:41.229Z,32.70
2022-08-25T05:13:09.621Z,31.55
2022-08-25T05:15:52.123Z,31.90
2022-08-25T05:18:19.505Z,31.30
2022-08-25T05:20:46.830Z,31.75
2022-08-25T05:23:15.552Z,32.28
2022-08-25T05:25:42.933Z,31.10
2022-08-25T05:28:10.074Z,31.70
2022-08-25T05:30:40.777Z,32.25
2022-08-25T05:33:07.978Z,31.92
2022-08-25T05:35:36.182Z,29.73
2022-08-25T05:38:04.380Z,29.40
2022-08-25T05:40:31.964Z,26.30
2022-08-25T05:42:59.259Z,26.98
2022-08-25T05:45:26.539Z,27.35
2022-08-25T05:47:53.745Z,28.25
2022-08-25T05:50:20.899Z,26.75
2022-08-25T05:52:48.062Z,26.70
2022-08-25T05:55:15.623Z,25.58
2022-08-25T05:57:42.771Z,24.88
2022-08-25T06:00:10.201Z,26.38
2022-08-25T06:02:41.345Z,27.67
2022-08-25T06:05:12.666Z,25.77
2022-08-25T06:07:39.869Z,26.73
2022-08-25T06:10:07.662Z,26.38
2022-08-25T06:12:36.195Z,27.95
2022-08-25T06:15:03.696Z,27.20
2022-08-25T06:17:30.897Z,26.23
2022-08-25T06:19:58.101Z,24.60
2022-08-25T06:22:28.098Z,23.08
2022-08-25T06:24:56.007Z,22.27
2022-08-25T06:27:23.243Z,23.38
2022-08-25T06:29:50.415Z,22.27
2022-08-25T06:32:22.245Z,22.05
2022-08-25T06:34:49.756Z,21.42
2022-08-25T06:37:17.058Z,21.42
2022-08-25T06:39:44.206Z,20.98
2022-08-25T06:42:11.451Z,21.88
2022-08-25T06:44:38.609Z,22.55
2022-08-25T06:47:05.982Z,22.48
2022-08-25T06:49:36.248Z,19.70
2022-08-25T06:52:03.764Z,18.48
2022-08-25T06:54:30.980Z,17.52
2022-08-25T06:56:58.174Z,16.13
2022-08-25T06:59:25.609Z,15.45
2022-08-25T07:01:59.571Z,15.23
2022-08-25T07:04:26.917Z,16.17
2022-08-25T07:06:54.523Z,16.30
2022-08-25T07:09:21.715Z,16.42
2022-08-25T07:11:48.974Z,16.50
2022-08-25T07:14:16.572Z,15.23
2022-08-25T07:16:48.805Z,15.88
2022-08-25T07:19:20.578Z,16.48
2022-08-25T07:21:48.618Z,16.45
2022-08-25T07:24:16.514Z,17.38
2022-08-25T07:26:43.785Z,16.02
2022-08-25T07:29:12.445Z,16.45
2022-08-25T07:31:39.833Z,16.83
2022-08-25T07:34:26.097Z,16.67
2022-08-25T07:36:53.711Z,16.23
2022-08-25T07:39:22.005Z,16.00
2022-08-25T07:41:52.387Z,16.45
2022-08-25T07:44:19.853Z,17.95
2022-08-25T07:46:47.109Z,16.30
2022-08-25T07:49:16.616Z,16.67
2022-08-25T07:52:03.777Z,16.73
2022-08-25T07:54:33.814Z,16.92
2022-08-25T07:57:02.339Z,16.05
2022-08-25T07:59:29.517Z,15.20
2022-08-25T08:01:56.790Z,16.45
2022-08-25T08:04:24.752Z,16.75
2022-08-25T08:06:51.895Z,16.95
2022-08-25T08:09:19.093Z,16.90
2022-08-25T08:11:54.372Z,15.55
2022-08-25T08:14:21.782Z,15.65
2022-08-25T08:16:49.560Z,15.48
2022-08-25T08:19:17.223Z,15.18
2022-08-25T08:21:44.475Z,15.75
2022-08-25T08:24:31.192Z,14.45
2022-08-25T08:26:59.375Z,13.20
2022-08-25T08:29:26.918Z,12.13
2022-08-25T08:31:54.120Z,13.25
2022-08-25T08:34:24.929Z,11.98
2022-08-25T08:36:52.624Z,11.80
2022-08-25T08:39:19.808Z,12.02
2022-08-25T08:42:11.238Z,11.65
2022-08-25T08:44:43.113Z,11.18
2022-08-25T08:47:11.484Z,10.73
2022-08-25T08:49:50.701Z,10.52
2022-08-25T08:52:18.398Z,9.45
2022-08-25T08:54:45.842Z,9.95
2022-08-25T08:57:17.343Z,9.63
2022-08-25T08:59:48.735Z,10.57
2022-08-25T09:02:38.934Z,9.82
2022-08-25T09:05:06.698Z,10.23
2022-08-25T09:07:35.950Z,9.05
2022-08-25T09:10:04.901Z,9.32
2022-08-25T09:12:33.438Z,9.15
2022-08-25T09:15:00.734Z,9.50
2022-08-25T09:17:37.429Z,9.18
2022-08-25T09:20:30.158Z,10.32
2022-08-25T09:23:03.712Z,9.18
2022-08-25T09:25:54.106Z,8.50
2022-08-25T09:28:21.827Z,9.13
2022-08-25T09:30:49.007Z,8.05
2022-08-25T09:33:16.386Z,7.97
2022-08-25T09:35:48.407Z,8.25
2022-08-25T09:38:16.956Z,7.45
2022-08-25T09:40:47.361Z,7.72
2022-08-25T09:43:20.456Z,7.43
2022-08-25T09:45:49.486Z,7.18
2022-08-25T09:48:24.016Z,6.97
2022-08-25T09:50:51.848Z,7.63
2022-08-25T09:53:21.731Z,7.72
2022-08-25T09:55:59.853Z,7.38
2022-08-25T09:58:27.487Z,7.55
2022-08-25T10:01:06.413Z,7.75
2022-08-25T10:03:36.335Z,10.90
2022-08-25T10:06:03.994Z,8.48
2022-08-25T10:08:32.625Z,7.65
2022-08-25T10:11:00.300Z,8.40
2022-08-25T10:13:34.970Z,8.07
2022-08-25T10:16:24.472Z,7.45
2022-08-25T10:19:06.704Z,8.27
2022-08-25T10:21:34.863Z,7.88
2022-08-25T10:24:03.042Z,7.93
2022-08-25T10:26:39.210Z,7.95
2022-08-25T10:29:18.213Z,7.75
2022-08-25T10:31:58.510Z,13.13
2022-08-25T10:34:35.870Z,8.32
2022-08-25T10:37:09.468Z,7.43
2022-08-25T10:39:41.675Z,7.82
2022-08-25T10:42:29.641Z,7.30
2022-08-25T10:45:19.512Z,7.45
2022-08-25T10:47:54.864Z,8.13
2022-08-25T10:50:30.093Z,8.40
2022-08-25T10:53:06.621Z,92.15
2022-08-25T10:55:40.257Z,12.23
2022-08-25T10:58:38.963Z,8.00
2022-08-25T11:01:15.532Z,7.72
2022-08-25T11:03:54.151Z,8.13
2022-08-25T11:06:22.200Z,8.38
2022-08-25T11:08:53.492Z,7.60
2022-08-25T11:11:21.789Z,7.05
2022-08-25T11:13:51.626Z,7.22
2022-08-25T11:16:20.348Z,7.28
2022-08-25T11:18:50.772Z,7.35
2022-08-25T11:21:22.792Z,7.53
2022-08-25T11:23:52.565Z,7.20
2022-08-25T11:26:20.723Z,7.28
2022-08-25T11:29:11.469Z,7.20
2022-08-25T11:31:40.570Z,6.53
2022-08-25T11:34:10.583Z,6.97
2022-08-25T11:36:40.563Z,7.18
2022-08-25T11:39:16.938Z,6.82
2022-08-25T11:42:02.888Z,7.13
2022-08-25T11:44:53.022Z,7.03
2022-08-25T11:47:43.235Z,7.53
2022-08-25T11:50:30.315Z,7.13
2022-08-25T11:53:26.638Z,7.10
2022-08-25T11:55:56.150Z,7.00
2022-08-25T11:58:42.124Z,7.03
2022-08-25T12:01:10.295Z,7.10
2022-08-25T12:03:37.537Z,6.57
2022-08-25T12:06:36.434Z,7.95
2022-08-25T12:09:03.759Z,6.65
2022-08-25T12:11:41.619Z,6.72
2022-08-25T12:14:16.206Z,6.97
2022-08-25T12:16:44.358Z,7.15
2022-08-25T12:19:23.827Z,7.35
2022-08-25T12:21:51.137Z,6.32
2022-08-25T12:24:20.339Z,6.47
2022-08-25T12:26:51.124Z,7.38
2022-08-25T12:29:18.322Z,6.45
2022-08-25T12:31:52.381Z,7.10
2022-08-25T12:34:26.903Z,6.60
2022-08-25T12:37:02.815Z,7.25
2022-08-25T12:39:36.835Z,6.65
2022-08-25T12:42:05.335Z,7.63
2022-08-25T12:44:43.039Z,6.97
2022-08-25T12:47:34.202Z,6.55
2022-08-25T12:50:20.085Z,6.85
2022-08-25T12:52:47.277Z,6.53
2022-08-25T12:55:14.436Z,6.85
2022-08-25T12:57:42.623Z,6.95
2022-08-25T13:00:22.730Z,6.80
2022-08-25T13:02:51.945Z,6.90
2022-08-25T13:05:22.408Z,6.82
2022-08-25T13:08:08.036Z,6.80
2022-08-25T13:10:54.610Z,6.80
2022-08-25T13:13:24.611Z,6.85
2022-08-25T13:18:51.530Z,6.78
2022-08-25T13:21:24.568Z,6.90
2022-08-25T13:23:54.027Z,6.95
2022-08-25T13:26:35.466Z,6.70
2022-08-25T13:29:13.465Z,6.22
2022-08-25T13:31:56.628Z,6.95
2022-08-25T13:34:34.210Z,7.25
2022-08-25T13:37:24.756Z,6.90
2022-08-25T13:39:56.373Z,7.13
2022-08-25T13:42:27.429Z,7.20
2022-08-25T13:44:56.839Z,5.78
2022-08-25T13:47:45.212Z,6.68
2022-08-25T13:50:34.213Z,6.30
2022-08-25T13:53:04.129Z,5.82
2022-08-25T13:55:50.662Z,5.28
2022-08-25T13:58:24.473Z,5.70
2022-08-25T14:01:22.195Z,6.22
2022-08-25T14:04:22.240Z,5.65
2022-08-25T14:06:49.623Z,6.25
2022-08-25T14:09:17.948Z,5.70
2022-08-25T14:11:49.915Z,6.05
2022-08-25T14:14:23.925Z,5.40
2022-08-25T14:16:57.434Z,5.78
2022-08-25T14:19:25.100Z,5.40
2022-08-25T14:21:59.335Z,5.40
2022-08-25T14:24:27.145Z,6.15
2022-08-25T14:26:54.901Z,6.07
2022-08-25T14:29:22.318Z,6.00
2022-08-25T14:31:49.558Z,5.60
2022-08-25T14:34:20.927Z,6.05
2022-08-25T14:36:48.584Z,6.07
2022-08-25T14:39:15.943Z,5.63
2022-08-25T14:41:45.318Z,5.97
2022-08-25T14:44:20.522Z,6.00
2022-08-25T14:46:51.644Z,6.53
2022-08-25T14:49:24.684Z,6.07
2022-08-25T14:51:52.389Z,6.20
2022-08-25T14:54:19.815Z,5.78
2022-08-25T14:56:49.320Z,5.75
2022-08-25T14:59:16.528Z,5.90
2022-08-25T15:01:43.859Z,5.72
2022-08-25T15:04:15.926Z,5.78
2022-08-25T15:06:44.833Z,5.53
2022-08-25T15:09:12.810Z,5.85
2022-08-25T15:11:41.718Z,5.97
2022-08-25T15:14:10.799Z,6.45
2022-08-25T15:16:39.246Z,5.95
2022-08-25T15:19:07.469Z,6.45
2022-08-25T15:21:35.746Z,8.68
2022-08-25T15:24:03.226Z,7.18
2022-08-25T15:26:31.193Z,7.15
2022-08-25T15:28:59.561Z,7.65
2022-08-25T15:31:27.130Z,6.45
2022-08-25T15:33:54.711Z,7.22
2022-08-25T15:36:23.001Z,9.20
2022-08-25T15:38:52.619Z,7.63
2022-08-25T15:41:19.829Z,7.00
2022-08-25T15:43:47.075Z,6.85
2022-08-25T15:46:20.674Z,8.23
2022-08-25T15:48:47.979Z,8.13
2022-08-25T15:51:15.945Z,6.97
2022-08-25T15:53:43.159Z,7.88
2022-08-25T15:56:14.117Z,7.53
2022-08-25T15:58:46.393Z,6.95
2022-08-25T16:01:18.304Z,6.40
2022-08-25T16:03:46.575Z,6.88
2022-08-25T16:06:13.780Z,6.82
2022-08-25T16:08:41.116Z,7.80
2022-08-25T16:11:17.996Z,7.53
2022-08-25T16:13:45.697Z,9.70
2022-08-25T16:16:15.424Z,8.07
2022-08-25T16:18:43.749Z,7.40
2022-08-25T16:21:12.644Z,9.88
2022-08-25T16:23:40.184Z,9.60
2022-08-25T16:26:08.949Z,10.15
2022-08-25T16:28:37.578Z,10.13
2022-08-25T16:31:05.067Z,7.88
2022-08-25T16:33:33.735Z,9.52
2022-08-25T16:36:05.078Z,6.90
2022-08-25T16:38:34.182Z,7.38
2022-08-25T16:41:02.314Z,7.78
2022-08-25T16:43:31.809Z,7.63
2022-08-25T16:45:59.810Z,9.73
2022-08-25T16:48:28.509Z,9.13
2022-08-25T16:50:55.909Z,8.88
2022-08-25T16:53:41.954Z,8.75
2022-08-25T16:56:12.049Z,7.38
2022-08-25T16:58:39.849Z,6.78
2022-08-25T17:01:14.196Z,7.07
2022-08-25T17:03:44.147Z,7.18
2022-08-25T17:06:11.455Z,6.45
2022-08-25T17:08:39.811Z,7.10
2022-08-25T17:11:11.440Z,6.78
2022-08-25T17:13:40.472Z,6.50
2022-08-25T17:16:12.061Z,7.72
2022-08-25T17:18:41.938Z,7.05
2022-08-25T17:21:09.966Z,7.05
2022-08-25T17:23:43.518Z,8.50
2022-08-25T17:26:14.719Z,7.13
2022-08-25T17:28:42.083Z,7.70
2022-08-25T17:31:09.828Z,19.35
2022-08-25T17:33:37.088Z,11.50
2022-08-25T17:36:05.894Z,12.95
2022-08-25T17:38:33.782Z,9.65
2022-08-25T17:41:01.769Z,10.07
2022-08-25T17:43:29.436Z,10.40
2022-08-25T17:45:59.798Z,9.85
2022-08-25T17:48:27.066Z,10.35
2022-08-25T17:50:54.504Z,9.98
2022-08-25T17:53:21.774Z,11.57
2022-08-25T17:55:51.318Z,11.55
2022-08-25T17:58:18.910Z,11.55
2022-08-25T18:00:47.748Z,12.48
2022-08-25T18:03:15.136Z,11.38
2022-08-25T18:05:42.286Z,10.98
2022-08-25T18:08:10.549Z,13.20
2022-08-25T18:10:38.083Z,18.77
2022-08-25T18:13:05.296Z,21.90
2022-08-25T18:15:34.004Z,25.45
2022-08-25T18:18:04.553Z,22.98
2022-08-25T18:20:32.613Z,20.73
2022-08-25T18:22:59.883Z,20.73
2022-08-25T18:25:28.041Z,18.17
2022-08-25T18:27:56.880Z,18.75
2022-08-25T18:30:26.286Z,17.95
2022-08-25T18:32:54.702Z,15.60
2022-08-25T18:35:22.589Z,16.42
2022-08-25T18:38:12.436Z,15.60
2022-08-25T18:40:39.904Z,16.08
2022-08-25T18:43:08.485Z,16.13
2022-08-25T18:45:41.367Z,14.77
2022-08-25T18:48:08.627Z,14.35
2022-08-25T18:50:36.693Z,13.30
2022-08-25T18:53:04.078Z,13.98
2022-08-25T18:55:33.811Z,12.90
2022-08-25T18:58:01.073Z,12.88
2022-08-25T19:00:29.657Z,11.93
2022-08-25T19:02:57.594Z,10.20
2022-08-25T19:05:26.643Z,11.45
2022-08-25T19:07:53.904Z,11.07
2022-08-25T19:10:24.041Z,11.57
2022-08-25T19:12:52.189Z,10.02
2022-08-25T19:15:19.510Z,12.02
2022-08-25T19:17:53.190Z,12.20
2022-08-25T19:20:20.597Z,10.38
2022-08-25T19:22:47.799Z,10.02
2022-08-25T19:25:15.855Z,10.27
2022-08-25T19:27:43.530Z,11.50
2022-08-25T19:30:11.282Z,10.93
2022-08-25T19:32:42.415Z,9.05
2022-08-25T19:35:10.777Z,9.82
2022-08-25T19:37:37.967Z,14.48
2022-08-25T19:40:07.863Z,19.95
2022-08-25T19:42:38.147Z,15.00
2022-08-25T19:45:09.176Z,11.05
2022-08-25T19:47:37.623Z,11.50
2022-08-25T19:50:07.947Z,11.60
2022-08-25T19:52:36.857Z,10.77
2022-08-25T19:55:04.203Z,10.60
2022-08-25T19:57:42.382Z,10.63
2022-08-25T20:00:12.733Z,10.60
2022-08-25T20:02:40.545Z,11.18
2022-08-25T20:05:07.987Z,9.60
2022-08-25T20:07:35.665Z,9.50
2022-08-25T20:10:02.933Z,12.80
2022-08-25T20:12:30.579Z,12.63
2022-08-25T20:14:58.335Z,12.80
2022-08-25T20:17:28.351Z,13.73
2022-08-25T20:19:56.967Z,13.73
2022-08-25T20:22:26.395Z,12.68
2022-08-25T20:24:56.210Z,12.65
2022-08-25T20:27:26.473Z,12.65
2022-08-25T20:29:53.942Z,12.48
2022-08-25T20:32:21.241Z,11.73
2022-08-25T20:34:48.859Z,12.70
2022-08-25T20:37:17.208Z,12.65
2022-08-25T20:39:46.739Z,12.95
2022-08-25T20:42:14.461Z,12.65
2022-08-25T20:44:42.537Z,13.15
2022-08-25T20:47:12.882Z,11.20
2022-08-25T20:49:40.533Z,12.02
2022-08-25T20:52:09.046Z,12.05
2022-08-25T20:54:36.348Z,12.32
2022-08-25T20:57:03.636Z,12.90
2022-08-25T20:59:35.066Z,14.15
2022-08-25T21:02:02.377Z,12.85
2022-08-25T21:04:31.011Z,15.15
2022-08-25T21:07:00.199Z,13.73
2022-08-25T21:09:28.031Z,13.60
2022-08-25T21:11:55.778Z,13.70
2022-08-25T21:14:24.000Z,12.77
2022-08-25T21:16:51.595Z,12.10
2022-08-25T21:19:26.773Z,11.32
2022-08-25T21:21:59.965Z,10.88
2022-08-25T21:24:27.472Z,9.77
2022-08-25T21:26:55.924Z,10.80
2022-08-25T21:29:23.361Z,10.80
2022-08-25T21:31:51.622Z,12.05
2022-08-25T21:34:18.909Z,12.65
2022-08-25T21:36:46.192Z,12.10
2022-08-25T21:39:14.387Z,11.65
2022-08-25T21:41:44.165Z,12.63
2022-08-25T21:44:12.687Z,13.00
2022-08-25T21:46:41.088Z,12.82
2022-08-25T21:49:08.538Z,12.27
2022-08-25T21:51:40.596Z,13.10
2022-08-25T21:54:09.053Z,13.38
2022-08-25T21:56:37.957Z,13.90
2022-08-25T21:59:05.723Z,12.32
2022-08-25T22:01:33.606Z,12.30
2022-08-25T22:04:02.212Z,12.30
2022-08-25T22:06:29.594Z,12.88
2022-08-25T22:08:56.890Z,13.48
2022-08-25T22:11:24.794Z,12.98
2022-08-25T22:13:52.966Z,12.70
2022-08-25T22:16:22.060Z,12.40
2022-08-25T22:18:49.998Z,12.77
2022-08-25T22:21:22.190Z,14.27
2022-08-25T22:23:50.181Z,14.25
2022-08-25T22:26:17.444Z,13.13
2022-08-25T22:28:49.331Z,12.93
2022-08-25T22:31:20.682Z,12.18
2022-08-25T22:33:48.402Z,13.00
2022-08-25T22:36:19.310Z,13.50
2022-08-25T22:38:47.274Z,13.30
2022-08-25T22:41:18.868Z,13.05
2022-08-25T22:43:49.069Z,13.02
2022-08-25T22:46:17.153Z,12.90
2022-08-25T22:48:44.578Z,15.02
2022-08-25T22:51:17.923Z,15.25
2022-08-25T22:53:45.442Z,11.90
2022-08-25T22:56:12.935Z,12.65
2022-08-25T22:58:51.732Z,13.25
2022-08-25T23:01:19.875Z,14.15
2022-08-25T23:03:47.633Z,13.13
2022-08-25T23:06:24.690Z,13.00
2022-08-25T23:08:53.506Z,12.70
2022-08-25T23:11:20.994Z,13.10
2022-08-25T23:13:48.151Z,12.50
2022-08-25T23:16:15.815Z,11.60
2022-08-25T23:18:44.871Z,11.77
2022-08-25T23:21:35.002Z,11.57
2022-08-25T23:24:05.677Z,10.70
2022-08-25T23:26:33.545Z,12.00
2022-08-25T23:29:00.959Z,12.02
2022-08-25T23:31:30.523Z,11.13
2022-08-25T23:33:58.294Z,11.30
2022-08-25T23:36:25.560Z,10.77
2022-08-25T23:38:52.799Z,10.38
2022-08-25T23:41:22.542Z,10.25
2022-08-25T23:43:49.797Z,9.52
2022-08-25T23:46:18.001Z,10.55
2022-08-25T23:48:45.439Z,9.82
2022-08-25T23:51:12.826Z,8.60
2022-08-25T23:53:39.995Z,9.55
2022-08-25T23:56:07.685Z,9.93
2022-08-25T23:58:35.904Z,9.90
